Time;durP1;ratioP1;P1;durP2;ratioP2;P2;SDS_P1;SDS_P2;PMS_P1;PMS_P2;Temp;Humidity;BMP_temperature;BMP_pressure;BME280_temperature;BME280_humidity;BME280_pressure;Samples;Min_cycle;Max_cycle;Signal;HPM_P1;HPM_P2
2022/09/10 00:02:08;;;;;;;5.60;3.63;;;;;;;19.61;61.00;100816.28;5054022;28;20095;-70
2022/09/10 00:04:43;;;;;;;7.15;3.80;;;;;;;19.60;61.29;100809.97;5053774;28;20043;-70
2022/09/10 00:07:11;;;;;;;6.13;3.40;;;;;;;19.62;61.19;100813.38;5053938;28;20091;-70
2022/09/10 00:09:37;;;;;;;7.80;3.30;;;;;;;19.64;61.32;100813.22;5053063;28;20036;-69
2022/09/10 00:12:04;;;;;;;9.48;3.40;;;;;;;19.62;61.19;100807.94;5070727;28;20032;-70
2022/09/10 00:14:31;;;;;;;7.38;3.33;;;;;;;19.57;61.39;100815.75;5072599;28;20122;-70
2022/09/10 00:16:57;;;;;;;8.43;4.10;;;;;;;19.53;60.95;100808.09;5076264;28;20044;-69
2022/09/10 00:19:24;;;;;;;10.45;4.30;;;;;;;19.51;61.20;100812.81;5092699;28;20552;-69
2022/09/10 00:21:50;;;;;;;9.38;3.90;;;;;;;19.49;61.03;100806.69;5087951;28;20032;-70
2022/09/10 00:24:17;;;;;;;11.07;3.85;;;;;;;19.45;61.25;100803.44;5092425;28;20089;-70
2022/09/10 00:26:44;;;;;;;10.25;4.45;;;;;;;19.46;61.27;100801.56;5092735;28;20559;-70
2022/09/10 00:29:14;;;;;;;8.20;3.92;;;;;;;19.49;61.45;100806.69;5092837;28;20040;-69
2022/09/10 00:31:41;;;;;;;7.85;4.45;;;;;;;19.52;61.58;100803.63;5075465;28;20032;-70
2022/09/10 00:34:13;;;;;;;9.95;4.65;;;;;;;19.56;61.70;100796.84;5072462;28;20406;-69
2022/09/10 00:36:42;;;;;;;11.45;4.55;;;;;;;19.58;61.64;100801.13;5054155;28;20494;-69
2022/09/10 00:39:16;;;;;;;10.60;4.63;;;;;;;19.61;61.90;100792.59;5072141;28;20494;-69
2022/09/10 00:41:46;;;;;;;10.10;4.38;;;;;;;19.65;62.02;100801.28;5073105;28;20048;-69
2022/09/10 00:44:40;;;;;;;9.00;4.70;;;;;;;19.64;61.97;100795.00;5072131;28;20036;-70
2022/09/10 00:47:20;;;;;;;7.75;5.13;;;;;;;19.66;61.76;100792.94;5072731;28;20036;-70
2022/09/10 00:49:51;;;;;;;11.73;5.82;;;;;;;19.65;61.62;100785.81;5053876;28;20048;-70
2022/09/10 00:52:18;;;;;;;10.15;5.18;;;;;;;19.63;61.79;100792.44;5071727;28;20098;-69
2022/09/10 00:54:50;;;;;;;10.60;6.30;;;;;;;19.62;61.99;100788.88;5071917;28;20037;-69
2022/09/10 00:57:20;;;;;;;9.65;5.90;;;;;;;19.62;61.89;100786.13;5072032;28;20053;-70
2022/09/10 00:59:59;;;;;;;11.88;5.78;;;;;;;19.63;61.65;100796.00;5071792;28;20063;-70
2022/09/10 01:02:26;;;;;;;10.02;6.03;;;;;;;19.65;61.94;100795.84;5072457;28;20032;-69
2022/09/10 01:04:57;;;;;;;11.10;6.07;;;;;;;19.65;61.76;100802.16;5092198;28;20043;-70
2022/09/10 01:07:29;;;;;;;12.18;6.10;;;;;;;19.68;62.05;100803.69;5073877;28;20047;-70
2022/09/10 01:09:58;;;;;;;8.80;5.88;;;;;;;19.67;62.14;100802.84;5071441;28;20059;-69
2022/09/10 01:12:44;;;;;;;11.38;5.82;;;;;;;19.64;61.84;100805.88;5073549;28;20035;-69
2022/09/10 01:15:45;;;;;;;11.45;6.28;;;;;;;19.61;62.20;100811.69;5073810;28;20052;-69
2022/09/10 01:18:14;;;;;;;9.60;6.20;;;;;;;19.56;61.85;100802.31;5091261;28;20035;-69
2022/09/10 01:21:19;;;;;;;10.98;6.15;;;;;;;19.51;61.99;100800.06;5071600;28;20059;-69
2022/09/10 01:24:21;;;;;;;8.00;5.85;;;;;;;19.50;62.01;100803.81;5071918;28;20098;-69
2022/09/10 01:26:59;;;;;;;7.40;6.10;;;;;;;19.53;62.46;100799.91;5073378;28;20086;-69
2022/09/10 01:29:44;;;;;;;11.73;6.93;;;;;;;19.53;62.13;100803.50;5091862;28;20040;-70
2022/09/10 01:32:44;;;;;;;12.43;6.78;;;;;;;19.51;62.17;100802.78;5073538;28;20059;-70
2022/09/10 01:35:35;;;;;;;10.10;6.63;;;;;;;19.54;62.23;100815.25;5091680;28;20498;-69
2022/09/10 01:38:08;;;;;;;12.32;6.75;;;;;;;19.54;62.33;100804.34;5045156;28;20124;-70
2022/09/10 01:40:36;;;;;;;11.27;6.72;;;;;;;19.55;62.22;100804.19;5053404;28;20388;-70
2022/09/10 01:43:09;;;;;;;16.90;7.70;;;;;;;19.60;62.31;100809.97;5052714;28;20051;-70
2022/09/10 01:46:12;;;;;;;9.57;6.80;;;;;;;19.61;62.66;100813.56;5053852;28;20055;-69
2022/09/10 01:48:55;;;;;;;13.32;7.45;;;;;;;19.65;62.30;100807.59;5068744;28;20045;-69
2022/09/10 01:51:35;;;;;;;14.10;7.30;;;;;;;19.66;62.52;100803.84;5053605;28;20040;-69
2022/09/10 01:54:23;;;;;;;9.85;7.38;;;;;;;19.62;62.44;100807.09;5053438;28;20048;-69
2022/09/10 01:57:13;;;;;;;13.95;7.72;;;;;;;19.62;62.51;100809.81;5057575;28;20055;-70
2022/09/10 02:00:14;;;;;;;11.93;7.50;;;;;;;19.62;62.55;100799.75;5057244;28;20418;-69
2022/09/10 02:02:51;;;;;;;13.52;7.63;;;;;;;19.65;62.76;100806.75;5030098;28;20048;-69
2022/09/10 02:05:56;;;;;;;14.20;7.90;;;;;;;19.65;62.60;100802.16;5069237;28;20029;-70
2022/09/10 02:08:29;;;;;;;14.88;8.02;;;;;;;19.64;62.83;100799.59;5040835;28;20574;-69
2022/09/10 02:10:59;;;;;;;13.60;7.70;;;;;;;19.64;62.74;100800.44;5073371;28;20048;-69
2022/09/10 02:13:57;;;;;;;13.75;8.00;;;;;;;19.64;62.96;100799.59;5073462;28;20048;-70
2022/09/10 02:16:57;;;;;;;10.35;7.63;;;;;;;19.66;63.01;100801.13;5091264;28;20028;-69
2022/09/10 02:19:27;;;;;;;12.35;8.02;;;;;;;19.66;62.59;100792.94;5073358;28;20036;-69
2022/09/10 02:21:56;;;;;;;13.48;7.95;;;;;;;19.70;62.59;100798.91;5056700;28;20048;-70
2022/09/10 02:24:26;;;;;;;11.27;7.53;;;;;;;19.71;62.64;100797.03;5073227;28;20406;-69
2022/09/10 02:26:53;;;;;;;10.00;7.97;;;;;;;19.72;62.88;100791.41;5054047;28;20037;-69
2022/09/10 02:29:20;;;;;;;13.52;8.23;;;;;;;19.72;62.74;100790.56;5070971;28;20050;-69
2022/09/10 02:31:47;;;;;;;11.80;8.23;;;;;;;19.74;63.13;100793.97;5071106;28;20041;-69
2022/09/10 02:34:16;;;;;;;12.65;7.97;;;;;;;19.77;63.13;100793.63;5053605;28;20045;-69
2022/09/10 02:36:46;;;;;;;13.30;7.93;;;;;;;19.81;62.87;100789.56;5071819;28;20043;-69
2022/09/10 02:39:13;;;;;;;22.40;8.32;;;;;;;19.84;62.91;100787.34;5073586;28;20044;-69
2022/09/10 02:41:40;;;;;;;12.60;7.63;;;;;;;19.87;63.04;100788.88;5073069;28;20494;-69
2022/09/10 02:44:08;;;;;;;16.00;8.25;;;;;;;19.90;62.89;100799.44;5073587;28;20036;-69
2022/09/10 02:46:35;;;;;;;13.07;7.63;;;;;;;19.93;62.91;100796.38;5071866;28;20093;-69
2022/09/10 02:49:02;;;;;;;9.55;7.50;;;;;;;19.96;62.70;100790.56;5073922;28;20068;-69
2022/09/10 02:51:32;;;;;;;14.75;7.72;;;;;;;19.98;62.64;100783.94;5073920;28;20494;-69
2022/09/10 02:54:04;;;;;;;14.45;7.68;;;;;;;19.96;63.03;100790.56;5056024;28;20044;-69
2022/09/10 02:56:31;;;;;;;11.05;7.65;;;;;;;19.94;62.78;100787.16;5058760;28;20037;-69
2022/09/10 02:58:57;;;;;;;11.80;7.93;;;;;;;19.89;62.52;100792.28;5074106;28;20063;-69
2022/09/10 03:01:25;;;;;;;10.90;7.38;;;;;;;19.87;62.76;100788.88;5055928;28;20040;-69
2022/09/10 03:04:01;;;;;;;12.23;7.43;;;;;;;19.83;62.60;100793.81;5086966;28;20040;-70
2022/09/10 03:06:28;;;;;;;15.07;8.15;;;;;;;19.82;63.20;100791.25;5075820;28;20498;-70
2022/09/10 03:08:56;;;;;;;10.07;7.57;;;;;;;19.80;62.90;100790.56;5094177;28;20048;-69
2022/09/10 03:11:26;;;;;;;14.63;7.80;;;;;;;19.81;63.24;100792.28;5070400;28;20036;-69
2022/09/10 03:13:57;;;;;;;12.57;7.03;;;;;;;19.84;62.92;100797.38;5056015;28;20041;-69
2022/09/10 03:16:24;;;;;;;12.75;7.93;;;;;;;19.88;63.30;100793.28;5055930;28;20044;-69
2022/09/10 03:18:51;;;;;;;14.50;8.30;;;;;;;19.89;63.10;100787.69;5052353;28;20514;-70
2022/09/10 03:21:21;;;;;;;14.93;8.48;;;;;;;19.91;63.02;100784.78;5052690;28;20044;-70
2022/09/10 03:23:54;;;;;;;10.63;8.15;;;;;;;19.90;63.22;100792.09;5052347;28;20077;-70
2022/09/10 03:26:25;;;;;;;12.15;7.65;;;;;;;19.88;62.92;100794.16;5055236;28;20041;-70
2022/09/10 03:28:53;;;;;;;14.90;8.73;;;;;;;19.88;63.37;100794.16;5072394;28;20075;-70
2022/09/10 03:31:23;;;;;;;10.82;7.63;;;;;;;19.87;63.22;100795.16;5053434;28;20080;-70
2022/09/10 03:33:49;;;;;;;10.48;8.05;;;;;;;19.87;63.22;100797.91;5068957;28;20102;-70
2022/09/10 03:36:17;;;;;;;14.27;8.48;;;;;;;19.89;63.20;100793.13;5068797;28;20099;-70
2022/09/10 03:38:46;;;;;;;9.45;7.70;;;;;;;19.90;63.57;100796.69;5068871;28;20590;-69
2022/09/10 03:41:12;;;;;;;11.13;7.00;;;;;;;19.91;63.28;100793.81;5055626;28;20388;-70
2022/09/10 03:43:43;;;;;;;11.75;7.30;;;;;;;19.90;63.44;100788.53;5072285;28;20058;-70
2022/09/10 03:46:10;;;;;;;11.00;7.63;;;;;;;19.92;63.41;100786.47;5072033;28;20445;-70
2022/09/10 03:48:42;;;;;;;10.00;7.38;;;;;;;19.94;63.30;100781.72;5072116;28;20068;-70
2022/09/10 03:51:09;;;;;;;13.23;8.10;;;;;;;19.95;63.26;100787.00;5069305;28;20529;-70
2022/09/10 03:53:38;;;;;;;13.95;7.45;;;;;;;19.95;63.10;100781.53;5051973;28;20639;-69
2022/09/10 03:56:07;;;;;;;12.02;7.45;;;;;;;19.95;63.11;100781.53;5053113;28;20075;-69
2022/09/10 03:58:34;;;;;;;10.52;7.95;;;;;;;19.97;63.53;100786.81;5053301;28;20117;-70
2022/09/10 04:01:02;;;;;;;13.85;7.90;;;;;;;19.96;63.16;100783.25;5052445;28;20037;-69
2022/09/10 04:03:32;;;;;;;14.57;7.78;;;;;;;19.97;63.18;100781.38;5053052;28;20045;-70
2022/09/10 04:05:58;;;;;;;13.60;7.88;;;;;;;19.96;63.62;100787.84;5052661;28;20057;-70
2022/09/10 04:08:25;;;;;;;11.95;7.45;;;;;;;19.93;63.12;100778.13;5053351;28;20045;-70
2022/09/10 04:10:53;;;;;;;10.68;8.27;;;;;;;19.94;63.33;100778.97;5051640;28;20049;-70
2022/09/10 04:13:22;;;;;;;11.45;8.68;;;;;;;19.95;63.19;100773.38;5052809;28;20394;-71
2022/09/10 04:15:48;;;;;;;9.85;7.50;;;;;;;19.94;63.61;100776.25;5052971;28;20090;-71
2022/09/10 04:18:15;;;;;;;10.63;8.20;;;;;;;19.93;63.54;100775.41;5051644;28;20446;-70
2022/09/10 04:20:46;;;;;;;10.68;7.60;;;;;;;19.91;63.41;100776.59;5066738;28;20044;-70
2022/09/10 04:23:15;;;;;;;10.45;7.50;;;;;;;19.90;63.76;100767.56;5052678;28;20048;-71
2022/09/10 04:25:42;;;;;;;11.98;8.63;;;;;;;19.91;63.29;100762.97;5051528;28;20045;-71
2022/09/10 04:28:10;;;;;;;11.18;7.28;;;;;;;19.88;63.57;100769.63;5051394;28;20136;-71
2022/09/10 04:30:39;;;;;;;11.70;8.10;;;;;;;19.85;63.32;100761.78;5064423;28;20064;-70
2022/09/10 04:33:07;;;;;;;13.38;8.63;;;;;;;19.86;63.78;100768.09;5055030;28;20048;-70
2022/09/10 04:35:34;;;;;;;11.10;8.25;;;;;;;19.85;63.81;100771.84;5051344;28;20136;-71
2022/09/10 04:38:04;;;;;;;12.85;8.18;;;;;;;19.85;63.64;100771.84;5051469;28;20048;-70
2022/09/10 04:40:33;;;;;;;15.85;8.98;;;;;;;19.85;63.65;100775.41;5051340;28;20045;-70
2022/09/10 04:43:00;;;;;;;12.07;9.35;;;;;;;19.88;63.69;100768.78;5069141;28;20434;-70
2022/09/10 04:45:33;;;;;;;11.73;8.38;;;;;;;19.88;63.52;100772.34;5054552;28;20394;-71
2022/09/10 04:48:00;;;;;;;14.85;8.65;;;;;;;19.89;63.89;100782.22;5055032;28;20048;-71
2022/09/10 04:50:32;;;;;;;12.48;9.13;;;;;;;19.91;63.83;100773.88;5070613;28;20041;-71
2022/09/10 04:53:06;;;;;;;15.82;9.75;;;;;;;19.92;63.38;100775.56;5071150;28;20123;-70
2022/09/10 04:55:38;;;;;;;13.32;8.30;;;;;;;19.90;63.68;100783.06;5072445;28;20042;-70
2022/09/10 04:58:05;;;;;;;10.07;7.93;;;;;;;19.90;63.88;100788.53;5071163;28;20036;-71
2022/09/10 05:00:32;;;;;;;15.02;9.13;;;;;;;19.91;63.81;100785.63;5058867;28;20045;-71
2022/09/10 05:02:59;;;;;;;14.45;9.77;;;;;;;19.92;63.81;100784.59;5052330;28;20057;-71
2022/09/10 05:05:27;;;;;;;13.45;9.18;;;;;;;19.92;63.47;100787.34;5051243;28;20051;-71
2022/09/10 05:07:54;;;;;;;12.70;9.15;;;;;;;19.94;63.30;100798.06;5034924;28;20410;-71
2022/09/10 05:10:22;;;;;;;11.63;8.93;;;;;;;19.90;63.96;100786.66;5060154;28;20058;-71
2022/09/10 05:12:49;;;;;;;14.68;9.27;;;;;;;19.90;63.66;100800.28;5071140;28;20415;-71
2022/09/10 05:15:16;;;;;;;15.02;9.65;;;;;;;19.89;63.91;100795.84;5070876;28;20079;-71
2022/09/10 05:17:46;;;;;;;15.13;9.93;;;;;;;19.89;64.09;100786.81;5070472;28;20135;-71
2022/09/10 05:20:14;;;;;;;15.98;10.45;;;;;;;19.87;64.10;100789.72;5070202;28;20068;-71
2022/09/10 05:22:47;;;;;;;14.55;10.07;;;;;;;19.86;63.69;100784.44;5056772;28;20037;-70
2022/09/10 05:25:17;;;;;;;14.88;10.18;;;;;;;19.86;63.69;100792.63;5052591;28;20041;-70
2022/09/10 05:27:43;;;;;;;16.17;10.27;;;;;;;19.85;63.79;100786.31;5051416;28;20041;-70
2022/09/10 05:30:14;;;;;;;15.95;10.48;;;;;;;19.84;64.20;100784.63;5061182;28;20127;-71
2022/09/10 05:32:40;;;;;;;14.80;10.48;;;;;;;19.84;64.10;100783.75;5071244;28;20095;-71
2022/09/10 05:35:08;;;;;;;16.52;11.10;;;;;;;19.86;64.09;100782.56;5069937;28;20131;-71
2022/09/10 05:37:38;;;;;;;12.52;10.82;;;;;;;19.87;64.04;100784.28;5070493;28;20427;-71
2022/09/10 05:40:07;;;;;;;15.27;10.88;;;;;;;19.87;64.14;100787.00;5070258;28;20130;-71
2022/09/10 05:42:34;;;;;;;15.82;11.68;;;;;;;19.88;63.98;100785.97;5070484;28;20041;-71
2022/09/10 05:45:03;;;;;;;19.45;11.98;;;;;;;19.88;64.22;100780.53;5071751;28;20036;-71
2022/09/10 05:47:32;;;;;;;15.38;10.85;;;;;;;19.89;64.36;100784.94;5070515;28;20046;-71
2022/09/10 05:49:59;;;;;;;17.45;12.27;;;;;;;19.89;64.07;100786.81;5064797;28;20057;-70
2022/09/10 05:52:26;;;;;;;16.48;12.02;;;;;;;19.91;64.33;100790.22;5049856;28;20450;-71
2022/09/10 05:54:59;;;;;;;16.25;11.88;;;;;;;19.91;64.09;100785.63;5049865;28;20041;-70
2022/09/10 05:57:26;;;;;;;16.23;11.88;;;;;;;19.94;64.43;100795.34;5050087;28;20045;-71
2022/09/10 05:59:52;;;;;;;17.55;11.80;;;;;;;19.97;64.53;100795.00;5054667;28;20041;-71
2022/09/10 06:02:19;;;;;;;17.10;11.65;;;;;;;20.03;64.38;100796.19;5070138;28;20035;-72
2022/09/10 06:04:52;;;;;;;17.33;11.07;;;;;;;20.03;64.18;100796.19;5069986;28;20051;-70
2022/09/10 06:07:19;;;;;;;19.25;12.80;;;;;;;20.02;64.45;100792.59;5070057;28;20048;-71
2022/09/10 06:09:45;;;;;;;16.98;11.68;;;;;;;19.99;64.00;100790.22;5067804;28;20044;-71
2022/09/10 06:12:23;;;;;;;16.73;12.00;;;;;;;19.97;63.95;100787.66;5057557;28;20052;-72
2022/09/10 06:14:54;;;;;;;17.70;12.63;;;;;;;19.96;64.37;100788.69;5058131;28;20144;-69
2022/09/10 06:17:21;;;;;;;19.63;12.15;;;;;;;19.97;64.40;100787.66;5052749;28;20079;-69
2022/09/10 06:19:50;;;;;;;17.90;11.60;;;;;;;19.99;64.27;100782.91;5060557;28;20045;-69
2022/09/10 06:22:17;;;;;;;15.57;11.45;;;;;;;20.02;64.10;100783.59;5049873;28;20063;-70
2022/09/10 06:24:52;;;;;;;21.92;12.50;;;;;;;20.03;64.48;100788.00;5050078;28;20075;-70
2022/09/10 06:27:22;;;;;;;16.48;11.70;;;;;;;20.04;64.45;100785.09;5054940;28;20041;-69
2022/09/10 06:29:50;;;;;;;23.65;13.13;;;;;;;20.03;64.28;100791.59;5052621;28;20557;-69
2022/09/10 06:32:17;;;;;;;16.35;11.63;;;;;;;20.03;64.38;100788.84;5073443;28;20475;-69
2022/09/10 06:34:49;;;;;;;20.05;13.15;;;;;;;20.02;64.14;100797.22;5060939;28;20048;-69
2022/09/10 06:37:17;;;;;;;17.13;12.35;;;;;;;20.00;64.21;100792.78;5057671;28;20446;-69
2022/09/10 06:39:44;;;;;;;18.67;12.95;;;;;;;20.01;64.29;100799.09;5053774;28;20049;-70
2022/09/10 06:42:11;;;;;;;16.48;12.00;;;;;;;20.01;64.53;100790.91;5053707;28;20041;-70
2022/09/10 06:44:58;;;;;;;18.92;13.30;;;;;;;20.00;64.42;100791.94;5053681;28;20041;-69
2022/09/10 06:47:43;;;;;;;17.75;13.43;;;;;;;20.02;64.57;100803.50;5055868;28;20056;-70
2022/09/10 06:50:38;;;;;;;17.98;12.20;;;;;;;20.04;64.38;100804.19;5073338;28;20044;-69
2022/09/10 06:53:05;;;;;;;20.90;12.77;;;;;;;20.02;64.70;100803.50;5073156;28;20045;-69
2022/09/10 06:55:34;;;;;;;17.10;12.38;;;;;;;20.02;64.42;100802.66;5055231;28;20041;-70
2022/09/10 06:58:02;;;;;;;16.50;11.75;;;;;;;20.03;64.64;100810.66;5057779;28;20037;-70
2022/09/10 07:00:31;;;;;;;18.48;12.95;;;;;;;20.04;64.71;100798.75;5073358;28;20139;-70
2022/09/10 07:02:59;;;;;;;13.98;11.88;;;;;;;20.06;64.65;100801.28;5073550;28;20123;-74
2022/09/10 07:05:33;;;;;;;17.42;12.02;;;;;;;20.07;64.76;100806.59;5072398;28;20037;-69
2022/09/10 07:08:01;;;;;;;15.85;11.50;;;;;;;20.11;64.62;100801.66;5072856;28;20041;-70
2022/09/10 07:10:30;;;;;;;14.20;10.75;;;;;;;20.08;64.46;100800.13;5074439;28;20039;-70
2022/09/10 07:12:56;;;;;;;15.98;10.95;;;;;;;20.07;64.81;100806.59;5068826;28;20051;-69
2022/09/10 07:15:27;;;;;;;14.10;11.63;;;;;;;20.07;64.66;100812.06;5054880;28;20033;-68
2022/09/10 07:17:54;;;;;;;14.45;11.55;;;;;;;20.11;64.70;100807.13;5053456;28;20037;-69
2022/09/10 07:20:22;;;;;;;14.65;12.10;;;;;;;20.12;64.58;100803.38;5053211;28;20037;-69
2022/09/10 07:22:54;;;;;;;16.13;12.32;;;;;;;20.14;64.89;100804.06;5055782;28;20036;-68
2022/09/10 07:25:26;;;;;;;17.48;12.05;;;;;;;20.16;64.87;100807.44;5071472;28;20045;-68
2022/09/10 07:28:01;;;;;;;15.35;12.98;;;;;;;20.18;64.60;100813.59;5053281;28;20081;-68
2022/09/10 07:30:34;;;;;;;17.05;12.50;;;;;;;20.18;64.80;100808.97;5053311;28;20052;-69
2022/09/10 07:33:01;;;;;;;16.00;13.98;;;;;;;20.20;64.88;100811.53;5070614;28;20083;-68
2022/09/10 07:35:34;;;;;;;16.27;12.60;;;;;;;20.22;65.00;100813.06;5072511;28;20036;-69
2022/09/10 07:38:01;;;;;;;20.17;13.65;;;;;;;20.25;64.69;100810.00;5071804;28;20135;-66
2022/09/10 07:40:28;;;;;;;16.83;13.07;;;;;;;20.28;65.01;100812.38;5073019;28;20056;-67
2022/09/10 07:42:56;;;;;;;18.33;13.40;;;;;;;20.29;64.93;100814.09;5053446;28;20048;-66
2022/09/10 07:45:27;;;;;;;19.60;14.35;;;;;;;20.34;64.85;100818.16;5053207;28;20564;-66
2022/09/10 07:47:53;;;;;;;18.92;13.65;;;;;;;20.39;65.01;100815.78;5052065;28;20044;-67
2022/09/10 07:50:20;;;;;;;17.45;13.30;;;;;;;20.41;65.31;100816.47;5051821;28;20577;-67
2022/09/10 07:52:52;;;;;;;51.03;15.48;;;;;;;20.43;64.84;100823.47;5067238;28;20132;-67
2022/09/10 07:55:22;;;;;;;16.10;12.75;;;;;;;20.44;65.17;100819.72;5072044;28;20506;-67
2022/09/10 07:57:49;;;;;;;18.20;13.90;;;;;;;20.46;64.80;100823.13;5072268;28;20068;-66
2022/09/10 08:00:17;;;;;;;18.90;14.50;;;;;;;20.49;65.25;100821.91;5072055;28;20040;-67
2022/09/10 08:02:51;;;;;;;16.93;12.67;;;;;;;20.50;64.97;100821.75;5070394;28;20083;-66
2022/09/10 08:05:25;;;;;;;19.65;13.02;;;;;;;20.54;65.01;100819.53;5072514;28;20071;-67
2022/09/10 08:08:00;;;;;;;17.92;13.32;;;;;;;20.59;64.98;100828.03;5072421;28;20052;-66
2022/09/10 08:10:27;;;;;;;15.52;12.60;;;;;;;20.63;65.26;100823.94;5071857;28;20059;-65
2022/09/10 08:12:56;;;;;;;14.35;12.85;;;;;;;20.62;64.46;100828.53;5058522;28;20068;-66
2022/09/10 08:15:25;;;;;;;16.48;12.18;;;;;;;20.62;65.02;100836.72;5052482;28;20068;-66
2022/09/10 08:17:51;;;;;;;16.77;12.95;;;;;;;20.64;65.04;100831.09;5064031;28;20102;-65
2022/09/10 08:20:20;;;;;;;14.23;11.88;;;;;;;20.65;64.87;100843.72;5070990;28;20063;-66
2022/09/10 08:22:50;;;;;;;14.88;13.38;;;;;;;20.66;64.91;100842.69;5072348;28;20048;-69
2022/09/10 08:25:21;;;;;;;14.45;12.85;;;;;;;20.68;64.84;100848.81;5071244;28;20057;-69
2022/09/10 08:27:48;;;;;;;14.77;13.25;;;;;;;20.69;64.68;100842.34;5070830;28;20040;-68
2022/09/10 08:30:14;;;;;;;16.05;14.45;;;;;;;20.74;65.00;100850.00;5071056;28;20044;-71
2022/09/10 08:32:41;;;;;;;16.35;14.07;;;;;;;20.75;64.99;100849.81;5070649;28;20127;-72
2022/09/10 08:35:10;;;;;;;15.95;14.35;;;;;;;20.78;64.94;100854.06;5070933;28;20040;-71
2022/09/10 08:37:39;;;;;;;17.33;15.70;;;;;;;20.82;64.97;100850.00;5070825;28;20076;-71
2022/09/10 08:40:10;;;;;;;21.30;16.08;;;;;;;20.85;65.03;100855.97;5070582;28;20040;-71
2022/09/10 08:42:46;;;;;;;16.92;15.10;;;;;;;20.87;64.94;100853.91;5070555;28;20457;-69
2022/09/10 08:45:23;;;;;;;20.80;15.68;;;;;;;20.91;64.91;100863.44;5070677;28;20055;-71
2022/09/10 08:47:57;;;;;;;18.88;16.92;;;;;;;20.93;65.20;100861.41;5070555;28;20521;-71
2022/09/10 08:50:40;;;;;;;20.27;17.70;;;;;;;20.97;65.20;100869.22;5071691;28;20106;-75
2022/09/10 08:53:42;;;;;;;23.65;19.05;;;;;;;21.02;65.04;100864.09;5054538;28;20131;-71
2022/09/10 08:56:16;;;;;;;21.33;18.88;;;;;;;21.09;65.00;100862.38;5070213;28;20044;-70
2022/09/10 08:58:53;;;;;;;21.50;19.20;;;;;;;21.17;65.17;100867.78;5070398;28;20499;-69
2022/09/10 09:01:35;;;;;;;22.52;19.58;;;;;;;21.25;65.36;100865.06;5070175;28;20136;-69
2022/09/10 09:04:31;;;;;;;22.98;20.50;;;;;;;21.35;65.45;100878.50;5070285;28;20051;-69
2022/09/10 09:07:02;;;;;;;21.67;19.42;;;;;;;21.43;65.29;100875.72;5072055;28;20040;-68
2022/09/10 09:09:29;;;;;;;24.60;19.65;;;;;;;21.48;65.37;100878.75;5070304;28;20075;-69
2022/09/10 09:12:17;;;;;;;21.02;18.88;;;;;;;21.52;65.16;100885.56;5069962;28;20040;-68
2022/09/10 09:15:02;;;;;;;22.63;20.15;;;;;;;21.55;64.91;100886.09;5070392;28;20419;-68
2022/09/10 09:17:54;;;;;;;25.20;20.70;;;;;;;21.62;65.24;100888.97;5070129;28;20037;-69
2022/09/10 09:20:36;;;;;;;25.20;21.58;;;;;;;21.68;65.18;100888.25;5069634;28;20494;-68
2022/09/10 09:23:35;;;;;;;23.63;20.77;;;;;;;21.72;65.00;100877.81;5069973;28;20461;-69
2022/09/10 09:26:14;;;;;;;23.33;20.50;;;;;;;21.76;64.74;100890.06;5070024;28;20161;-69
2022/09/10 09:28:59;;;;;;;22.38;19.98;;;;;;;21.77;64.80;100883.56;5070117;28;20044;-69
2022/09/10 09:31:31;;;;;;;22.95;20.05;;;;;;;21.79;64.68;100887.84;5070090;28;20152;-69
2022/09/10 09:34:13;;;;;;;20.95;18.58;;;;;;;21.83;64.64;100886.44;5069973;28;20090;-69
2022/09/10 09:36:44;;;;;;;22.35;20.15;;;;;;;21.92;64.87;100878.19;5071212;28;20437;-68
2022/09/10 09:39:19;;;;;;;22.95;20.55;;;;;;;21.99;64.79;100874.53;5069872;28;20041;-68
2022/09/10 09:42:32;;;;;;;20.58;18.33;;;;;;;22.07;64.84;100881.84;5069487;28;20102;-68
2022/09/10 09:45:19;;;;;;;17.70;15.93;;;;;;;22.11;64.53;100889.50;5069688;28;20044;-69
2022/09/10 09:47:49;;;;;;;16.00;14.30;;;;;;;22.08;64.12;100886.28;5071160;28;20028;-68
2022/09/10 09:50:19;;;;;;;17.27;15.65;;;;;;;22.05;64.02;100887.50;5069782;28;20045;-69
2022/09/10 09:52:46;;;;;;;18.45;14.80;;;;;;;22.05;64.09;100881.19;5070867;28;20418;-68
2022/09/10 09:55:25;;;;;;;17.60;15.77;;;;;;;22.09;64.43;100883.38;5070981;28;20332;-68
2022/09/10 09:58:32;;;;;;;17.60;15.68;;;;;;;22.20;64.33;100888.41;5071441;28;20437;-68
2022/09/10 10:01:11;;;;;;;15.57;14.18;;;;;;;22.33;64.75;100895.19;4989097;28;20042;-68
2022/09/10 10:04:01;;;;;;;15.05;13.65;;;;;;;22.41;64.61;100892.38;5064525;28;20037;-68
2022/09/10 10:06:31;;;;;;;14.00;12.60;;;;;;;22.48;64.91;100894.19;5075132;28;20372;-68
2022/09/10 10:09:13;;;;;;;13.95;12.52;;;;;;;22.53;64.22;100885.41;5074893;28;20045;-69
2022/09/10 10:11:48;;;;;;;15.73;13.30;;;;;;;22.54;64.04;100889.00;5074682;28;20102;-68
2022/09/10 10:14:18;;;;;;;14.30;13.10;;;;;;;22.53;63.87;100888.16;5074977;28;20041;-68
2022/09/10 10:16:51;;;;;;;15.43;13.82;;;;;;;22.52;63.72;100889.19;5076795;28;20097;-69
2022/09/10 10:19:28;;;;;;;15.48;13.98;;;;;;;22.50;63.63;100894.84;5094872;28;20448;-69
2022/09/10 10:21:54;;;;;;;15.32;13.90;;;;;;;22.52;63.79;100891.91;5076777;28;20598;-68
2022/09/10 10:24:32;;;;;;;19.58;16.25;;;;;;;22.52;63.97;100897.41;5076803;28;20047;-68
2022/09/10 10:26:59;;;;;;;17.90;15.70;;;;;;;22.55;63.81;100897.03;5094899;28;20563;-68
2022/09/10 10:29:26;;;;;;;18.20;16.00;;;;;;;22.57;63.92;100900.44;5095168;28;20367;-68
2022/09/10 10:31:54;;;;;;;18.67;16.50;;;;;;;22.59;63.82;100901.09;5094488;28;20490;-68
2022/09/10 10:34:40;;;;;;;18.85;16.33;;;;;;;22.62;64.25;100902.59;5094789;28;20036;-67
2022/09/10 10:37:13;;;;;;;17.65;15.73;;;;;;;22.65;63.93;100903.09;5094814;28;20444;-68
2022/09/10 10:39:55;;;;;;;17.67;15.77;;;;;;;22.68;63.96;100902.72;5081719;28;20036;-68
2022/09/10 10:42:53;;;;;;;17.15;14.68;;;;;;;22.70;64.03;100895.16;5094906;28;20043;-67
2022/09/10 10:45:48;;;;;;;15.20;13.25;;;;;;;22.72;63.68;100901.31;5095102;28;20044;-67
2022/09/10 10:48:38;;;;;;;15.80;14.13;;;;;;;22.74;63.75;100899.22;5095359;28;20041;-67
2022/09/10 10:51:32;;;;;;;14.00;12.50;;;;;;;22.73;63.69;100900.25;5092641;28;20044;-68
2022/09/10 10:54:10;;;;;;;15.10;13.25;;;;;;;22.72;63.63;100898.56;5077400;28;20036;-68
2022/09/10 10:56:41;;;;;;;15.77;13.07;;;;;;;22.72;63.47;100898.56;5095788;28;20482;-68
2022/09/10 10:59:23;;;;;;;14.05;12.40;;;;;;;22.70;63.52;100908.84;5094947;28;20040;-68
2022/09/10 11:01:56;;;;;;;14.18;11.82;;;;;;;22.68;63.46;100905.44;5075707;28;20040;-68
2022/09/10 11:04:39;;;;;;;19.63;11.82;;;;;;;22.63;63.57;100899.69;5093284;28;20500;-68
2022/09/10 11:07:15;;;;;;;15.32;12.05;;;;;;;22.61;63.20;100899.03;5094292;28;20093;-68
2022/09/10 11:09:50;;;;;;;15.80;12.30;;;;;;;22.60;63.65;100907.41;5093574;28;20043;-68
2022/09/10 11:12:44;;;;;;;15.85;11.85;;;;;;;22.58;63.36;100910.34;5073716;28;20040;-68
2022/09/10 11:15:16;;;;;;;17.02;12.40;;;;;;;22.60;63.39;100912.91;5073417;28;20498;-69
2022/09/10 11:18:05;;;;;;;15.00;12.85;;;;;;;22.54;63.51;100919.97;5083771;28;20085;-68
2022/09/10 11:20:41;;;;;;;11.80;9.32;;;;;;;22.50;62.90;100926.84;5075271;28;20433;-69
2022/09/10 11:23:56;;;;;;;11.95;9.77;;;;;;;22.39;63.34;100925.38;5073137;28;20565;-68
2022/09/10 11:27:00;;;;;;;8.52;6.03;;;;;;;22.33;63.40;100920.66;5074252;28;20075;-68
2022/09/10 11:29:41;;;;;;;7.40;5.85;;;;;;;22.27;63.37;100924.09;5073470;28;20465;-69
2022/09/10 11:32:21;;;;;;;7.45;4.45;;;;;;;22.24;63.49;100918.13;5076246;28;20441;-68
2022/09/10 11:35:05;;;;;;;5.35;4.38;;;;;;;22.19;63.48;100927.75;5073369;28;20044;-68
2022/09/10 11:37:42;;;;;;;8.75;4.50;;;;;;;22.14;63.13;100926.59;5074263;28;20049;-68
2022/09/10 11:40:34;;;;;;;13.77;4.65;;;;;;;22.08;63.23;100925.44;5093414;28;20432;-68
2022/09/10 11:43:13;;;;;;;5.65;4.38;;;;;;;22.06;63.41;100926.66;5051883;28;20105;-68
2022/09/10 11:45:45;;;;;;;9.93;4.68;;;;;;;22.04;63.45;100926.81;5093151;28;20093;-68